Time;durP1;ratioP1;P1;durP2;ratioP2;P2;SDS_P1;SDS_P2;PMS_P1;PMS_P2;Temp;Humidity;BMP_temperature;BMP_pressure;BME280_temperature;BME280_humidity;BME280_pressure;Samples;Min_cycle;Max_cycle;Signal;HPM_P1;HPM_P2
2023/08/04 00:00:12;;;;;;;57.25;53.17;;;16.70;99.90;;;;;;5031077;28;20428;-82
2023/08/04 00:02:38;;;;;;;77.45;72.75;;;16.60;99.90;;;;;;5013635;28;20044;-82
2023/08/04 00:05:05;;;;;;;57.38;53.58;;;16.60;99.90;;;;;;5029905;28;20124;-81
2023/08/04 00:07:32;;;;;;;57.58;53.67;;;16.60;99.90;;;;;;5029828;28;20045;-81
2023/08/04 00:09:58;;;;;;;71.85;67.65;;;16.60;99.90;;;;;;5031235;28;20079;-82
2023/08/04 00:12:24;;;;;;;47.67;44.40;;;16.60;99.90;;;;;;5029939;28;20069;-82
2023/08/04 00:14:49;;;;;;;66.72;62.45;;;16.60;99.90;;;;;;5034063;28;20484;-82
2023/08/04 00:17:15;;;;;;;64.80;60.65;;;16.60;99.90;;;;;;5034973;28;20408;-82
2023/08/04 00:19:42;;;;;;;58.35;54.47;;;16.60;99.90;;;;;;5034738;28;20110;-82
2023/08/04 00:22:08;;;;;;;57.40;53.90;;;16.60;99.90;;;;;;5033524;28;20049;-82
2023/08/04 00:24:34;;;;;;;55.15;51.30;;;16.60;99.90;;;;;;5033688;28;20041;-82
2023/08/04 00:27:01;;;;;;;51.38;48.15;;;16.60;99.90;;;;;;5033451;28;20168;-82
2023/08/04 00:29:27;;;;;;;51.40;47.58;;;16.60;99.90;;;;;;5034414;28;20079;-82
2023/08/04 00:31:53;;;;;;;70.22;65.80;;;16.60;99.90;;;;;;5033332;28;20542;-81
2023/08/04 00:34:18;;;;;;;52.15;48.28;;;16.50;99.90;;;;;;5033482;28;20046;-82
2023/08/04 00:36:45;;;;;;;63.55;59.15;;;16.60;99.90;;;;;;5033382;28;20096;-82
2023/08/04 00:39:11;;;;;;;59.60;54.95;;;16.40;99.90;;;;;;5033272;28;20045;-82
2023/08/04 00:41:37;;;;;;;67.47;63.40;;;16.50;99.90;;;;;;5034562;28;20553;-82
2023/08/04 00:44:03;;;;;;;66.13;62.35;;;16.40;99.90;;;;;;5016270;28;20041;-82
2023/08/04 00:46:32;;;;;;;59.90;56.10;;;16.40;99.90;;;;;;5033049;28;20049;-82
2023/08/04 00:48:59;;;;;;;65.05;61.13;;;16.40;99.90;;;;;;5034510;28;20460;-82
2023/08/04 00:51:26;;;;;;;44.60;41.50;;;16.40;99.90;;;;;;5033376;28;20045;-82
2023/08/04 00:53:52;;;;;;;67.40;63.15;;;16.30;99.90;;;;;;5033060;28;20029;-81
2023/08/04 00:56:18;;;;;;;41.88;39.17;;;16.30;99.90;;;;;;5034122;28;20064;-81
2023/08/04 00:58:44;;;;;;;57.40;53.45;;;16.30;99.90;;;;;;5032432;28;20488;-81
2023/08/04 01:01:10;;;;;;;56.53;53.03;;;16.30;99.90;;;;;;5034112;28;20067;-82
2023/08/04 01:03:38;;;;;;;73.53;69.10;;;16.30;99.90;;;;;;5032860;28;20156;-82
2023/08/04 01:06:21;;;;;;;79.90;75.20;;;16.20;99.90;;;;;;5032710;28;20080;-82
2023/08/04 01:09:16;;;;;;;72.80;68.50;;;16.20;99.90;;;;;;5032712;28;20057;-81
2023/08/04 01:14:49;;;;;;;64.18;60.17;;;16.20;99.90;;;;;;5033837;28;20049;-81
2023/08/04 01:17:28;;;;;;;66.93;62.97;;;16.20;99.90;;;;;;5034108;28;20471;-82
2023/08/04 01:19:54;;;;;;;60.33;56.38;;;16.20;99.90;;;;;;5032436;28;20057;-82
2023/08/04 01:22:21;;;;;;;53.35;50.13;;;16.20;99.90;;;;;;5032656;28;20049;-82
2023/08/04 01:24:47;;;;;;;65.82;61.88;;;16.20;99.90;;;;;;5032061;28;20414;-82
2023/08/04 01:27:17;;;;;;;74.90;70.28;;;16.20;99.90;;;;;;5033122;28;20040;-81
2023/08/04 01:29:44;;;;;;;53.60;50.58;;;16.20;99.90;;;;;;5033891;28;20090;-82
2023/08/04 01:32:10;;;;;;;64.47;60.65;;;16.00;99.90;;;;;;5033834;28;20076;-82
2023/08/04 01:34:36;;;;;;;83.93;78.95;;;16.00;99.90;;;;;;5032491;28;20060;-82
2023/08/04 01:37:02;;;;;;;57.05;53.47;;;15.90;99.90;;;;;;5033658;28;20493;-81
2023/08/04 01:39:28;;;;;;;55.92;52.17;;;15.80;99.90;;;;;;5032546;28;20134;-82
2023/08/04 01:41:53;;;;;;;58.83;55.30;;;15.80;99.90;;;;;;5031587;28;20480;-82
2023/08/04 01:44:19;;;;;;;76.32;70.43;;;15.80;99.90;;;;;;5033595;28;20033;-82
2023/08/04 01:46:44;;;;;;;68.45;64.60;;;15.70;99.90;;;;;;5032021;28;20041;-81
2023/08/04 01:49:10;;;;;;;72.03;67.35;;;15.70;99.90;;;;;;5033397;28;20042;-82
2023/08/04 01:51:36;;;;;;;68.93;64.55;;;15.70;99.90;;;;;;5033660;28;20434;-81
2023/08/04 01:54:02;;;;;;;78.07;72.45;;;15.60;99.90;;;;;;5033333;28;20392;-81
2023/08/04 01:56:27;;;;;;;66.68;62.40;;;15.60;99.90;;;;;;5031302;28;20037;-81
2023/08/04 01:58:53;;;;;;;72.03;66.47;;;15.70;99.90;;;;;;5033063;28;20445;-82
2023/08/04 02:01:20;;;;;;;62.38;57.80;;;15.70;99.90;;;;;;5015211;28;20087;-81
2023/08/04 02:03:45;;;;;;;68.88;64.53;;;15.70;99.90;;;;;;5031738;28;20037;-81
2023/08/04 02:06:11;;;;;;;60.30;56.38;;;15.70;99.90;;;;;;5032998;28;20514;-82
2023/08/04 02:08:37;;;;;;;71.65;67.10;;;15.80;99.90;;;;;;5032031;28;20476;-82
2023/08/04 02:11:03;;;;;;;58.40;53.45;;;15.80;99.90;;;;;;5030993;28;20495;-81
2023/08/04 02:13:28;;;;;;;72.05;67.20;;;15.90;99.90;;;;;;5031469;28;20044;-81
2023/08/04 02:15:54;;;;;;;64.45;60.42;;;15.90;99.90;;;;;;5031579;28;20431;-81
2023/08/04 02:18:19;;;;;;;61.08;57.25;;;15.90;99.90;;;;;;5031215;28;20111;-81
2023/08/04 02:20:45;;;;;;;74.45;69.90;;;15.90;99.90;;;;;;5032534;28;20053;-82
2023/08/04 02:23:11;;;;;;;67.15;62.80;;;15.90;99.90;;;;;;5032593;28;20080;-81
2023/08/04 02:25:37;;;;;;;78.15;73.38;;;15.90;99.90;;;;;;5030796;28;20373;-82
2023/08/04 02:28:02;;;;;;;71.10;66.47;;;15.90;99.90;;;;;;5031510;28;20140;-82
2023/08/04 02:30:28;;;;;;;74.65;70.05;;;15.90;99.90;;;;;;5014706;28;20487;-81
2023/08/04 02:32:54;;;;;;;70.32;65.55;;;15.90;99.90;;;;;;5031133;28;20407;-82
2023/08/04 02:35:19;;;;;;;68.65;64.47;;;15.90;99.90;;;;;;5031143;28;20033;-82
2023/08/04 02:37:46;;;;;;;69.80;65.00;;;15.90;99.90;;;;;;5031131;28;20080;-82
2023/08/04 02:40:12;;;;;;;69.82;65.60;;;15.80;99.90;;;;;;5031903;28;20040;-82
2023/08/04 02:42:37;;;;;;;56.15;52.70;;;15.70;99.90;;;;;;5031043;28;20033;-81
2023/08/04 02:45:04;;;;;;;55.30;51.72;;;15.60;99.90;;;;;;5032492;28;20037;-81
2023/08/04 02:47:30;;;;;;;63.10;59.05;;;15.60;99.90;;;;;;5032326;28;20037;-81
2023/08/04 02:49:55;;;;;;;51.25;47.85;;;15.60;99.90;;;;;;5030982;28;20068;-82
2023/08/04 02:52:21;;;;;;;52.40;48.92;;;15.60;99.90;;;;;;5030383;28;20124;-81
2023/08/04 02:54:47;;;;;;;60.60;56.67;;;15.60;99.90;;;;;;5030884;28;20033;-81
2023/08/04 02:57:12;;;;;;;56.03;52.65;;;15.60;99.90;;;;;;5030859;28;20049;-82
2023/08/04 02:59:38;;;;;;;57.35;53.42;;;15.60;99.90;;;;;;5032256;28;20094;-82
2023/08/04 03:02:04;;;;;;;57.00;53.05;;;15.60;99.90;;;;;;5031993;28;20396;-81
2023/08/04 03:04:30;;;;;;;51.42;47.97;;;15.60;99.90;;;;;;5031816;28;20487;-82
2023/08/04 03:06:55;;;;;;;52.72;49.45;;;15.60;99.90;;;;;;5030233;28;20046;-82
2023/08/04 03:09:21;;;;;;;47.35;43.92;;;15.60;99.90;;;;;;5030563;28;20484;-81
2023/08/04 03:11:46;;;;;;;56.25;52.55;;;15.60;99.90;;;;;;5031781;28;20042;-82
2023/08/04 03:14:12;;;;;;;54.90;51.65;;;15.70;99.90;;;;;;5031911;28;20040;-82
2023/08/04 03:16:38;;;;;;;46.88;43.65;;;15.70;99.90;;;;;;5031896;28;20048;-82
2023/08/04 03:19:03;;;;;;;61.20;56.75;;;15.70;99.90;;;;;;5030197;28;20520;-81
2023/08/04 03:21:29;;;;;;;55.75;52.25;;;15.70;99.90;;;;;;5030062;28;20124;-81
2023/08/04 03:23:55;;;;;;;50.38;47.33;;;15.70;99.90;;;;;;5031784;28;20045;-82
2023/08/04 03:26:20;;;;;;;52.42;49.15;;;15.80;99.90;;;;;;5013717;28;20049;-82
2023/08/04 03:28:46;;;;;;;61.15;57.22;;;15.70;99.90;;;;;;5030347;28;20434;-82
2023/08/04 03:31:11;;;;;;;53.83;50.47;;;15.70;99.90;;;;;;5030478;28;20519;-82
2023/08/04 03:33:37;;;;;;;50.70;47.55;;;15.70;99.90;;;;;;5030276;28;20076;-82
2023/08/04 03:36:03;;;;;;;70.40;66.38;;;15.70;99.90;;;;;;5030024;28;20136;-82
2023/08/04 03:38:29;;;;;;;64.50;60.25;;;15.70;99.90;;;;;;5030212;28;20041;-82
2023/08/04 03:40:54;;;;;;;60.83;56.78;;;15.60;99.90;;;;;;5030223;28;20061;-82
2023/08/04 03:43:20;;;;;;;61.08;57.47;;;15.60;99.90;;;;;;5031352;28;20041;-82
2023/08/04 03:45:45;;;;;;;72.70;67.97;;;15.50;99.90;;;;;;5030341;28;20385;-82
2023/08/04 03:48:11;;;;;;;63.72;59.58;;;15.50;99.90;;;;;;5030734;28;20045;-81
2023/08/04 03:50:37;;;;;;;59.47;55.63;;;15.40;99.90;;;;;;5033727;28;20033;-81
2023/08/04 03:53:02;;;;;;;59.58;55.92;;;15.40;99.90;;;;;;5035368;28;20143;-82
2023/08/04 03:55:28;;;;;;;50.47;47.17;;;15.30;99.90;;;;;;5034161;28;20035;-81
2023/08/04 03:57:54;;;;;;;48.95;45.97;;;15.20;99.90;;;;;;5033988;28;20038;-81
2023/08/04 04:00:19;;;;;;;47.13;44.22;;;15.20;99.90;;;;;;5034009;28;20540;-82
2023/08/04 04:02:45;;;;;;;43.40;40.80;;;15.20;99.90;;;;;;5033866;28;20453;-81
2023/08/04 04:05:11;;;;;;;46.03;42.75;;;15.20;99.90;;;;;;5017168;28;20041;-81
2023/08/04 04:07:36;;;;;;;46.90;44.00;;;15.20;99.90;;;;;;5035091;28;20041;-81
2023/08/04 04:10:02;;;;;;;43.92;41.03;;;15.20;99.90;;;;;;5033753;28;20041;-81
2023/08/04 04:12:28;;;;;;;45.45;42.63;;;15.20;99.90;;;;;;5033721;28;20041;-81
2023/08/04 04:14:54;;;;;;;46.80;43.35;;;15.30;99.90;;;;;;5035099;28;20045;-81
2023/08/04 04:17:19;;;;;;;45.38;42.40;;;15.20;99.90;;;;;;5034932;28;20495;-81
2023/08/04 04:19:45;;;;;;;63.38;59.17;;;15.30;99.90;;;;;;5032967;28;20553;-82
2023/08/04 04:22:11;;;;;;;52.65;49.15;;;15.30;99.90;;;;;;5034762;28;20060;-82
2023/08/04 04:24:36;;;;;;;55.97;52.50;;;15.30;99.90;;;;;;5034722;28;20063;-81
2023/08/04 04:27:05;;;;;;;62.92;59.03;;;15.30;99.90;;;;;;5033273;28;20041;-81
2023/08/04 04:29:32;;;;;;;58.33;54.72;;;15.30;99.90;;;;;;5033360;28;20037;-81
2023/08/04 04:31:58;;;;;;;58.17;54.65;;;15.40;99.90;;;;;;5033384;28;20049;-81
2023/08/04 04:34:24;;;;;;;54.58;51.22;;;15.40;99.90;;;;;;5032936;28;20043;-82
2023/08/04 04:36:49;;;;;;;58.20;54.70;;;15.40;99.90;;;;;;5033276;28;20116;-81
2023/08/04 04:39:15;;;;;;;59.30;55.47;;;15.70;99.90;;;;;;5034548;28;20037;-82
2023/08/04 04:41:41;;;;;;;64.85;61.00;;;15.70;99.90;;;;;;5016710;28;20045;-82
2023/08/04 04:44:06;;;;;;;62.35;58.00;;;15.60;99.90;;;;;;5033174;28;20048;-82
2023/08/04 04:46:32;;;;;;;63.85;60.08;;;15.60;99.90;;;;;;5033142;28;20064;-81
2023/08/04 04:48:58;;;;;;;59.97;56.15;;;15.60;99.90;;;;;;5033845;28;20472;-82
2023/08/04 04:51:23;;;;;;;58.95;55.28;;;15.60;99.90;;;;;;5033030;28;20045;-81
2023/08/04 04:53:49;;;;;;;54.22;50.92;;;15.70;99.90;;;;;;5033020;28;20488;-81
2023/08/04 04:56:15;;;;;;;50.83;47.53;;;15.70;99.90;;;;;;5016480;28;20041;-81
2023/08/04 04:58:40;;;;;;;54.80;51.63;;;15.70;99.90;;;;;;5034415;28;20037;-81
2023/08/04 05:01:07;;;;;;;52.88;49.55;;;15.80;99.90;;;;;;5031790;28;20100;-81
2023/08/04 05:03:33;;;;;;;39.78;37.47;;;15.70;99.90;;;;;;5032402;28;20044;-81
2023/08/04 05:05:58;;;;;;;41.65;39.15;;;15.80;99.90;;;;;;5032973;28;20588;-81
2023/08/04 05:08:24;;;;;;;49.72;46.72;;;15.60;99.90;;;;;;5032693;28;20492;-81
2023/08/04 05:10:54;;;;;;;53.47;50.10;;;15.70;99.90;;;;;;5032770;28;20040;-81
2023/08/04 05:13:20;;;;;;;44.13;41.40;;;15.70;99.90;;;;;;5032789;28;20037;-81
2023/08/04 05:15:49;;;;;;;50.80;47.70;;;15.70;99.90;;;;;;5032634;28;20136;-81
2023/08/04 05:18:16;;;;;;;45.15;42.47;;;15.70;99.90;;;;;;5033228;28;20089;-81
2023/08/04 05:20:45;;;;;;;48.15;44.78;;;15.80;99.90;;;;;;5033749;28;20037;-81
2023/08/04 05:23:11;;;;;;;46.58;43.50;;;15.90;99.90;;;;;;5032670;28;20045;-81
2023/08/04 05:25:37;;;;;;;43.35;40.75;;;15.90;99.90;;;;;;5033845;28;20444;-81
2023/08/04 05:28:23;;;;;;;54.72;51.25;;;15.90;99.90;;;;;;5032380;28;20076;-81
2023/08/04 05:30:49;;;;;;;48.88;46.00;;;16.00;99.90;;;;;;5032404;28;20041;-81
2023/08/04 05:33:15;;;;;;;61.08;57.47;;;16.00;99.90;;;;;;5031848;28;20227;-81
2023/08/04 05:35:44;;;;;;;54.80;51.55;;;16.10;99.90;;;;;;5033637;28;20041;-81
2023/08/04 05:38:10;;;;;;;55.70;52.38;;;16.10;99.90;;;;;;5032262;28;20041;-81
2023/08/04 05:40:37;;;;;;;58.33;54.65;;;16.20;99.90;;;;;;5032277;28;20056;-81
2023/08/04 05:43:04;;;;;;;57.55;54.35;;;16.30;99.90;;;;;;5032146;28;20042;-81
2023/08/04 05:45:34;;;;;;;59.35;55.80;;;16.30;99.90;;;;;;5033369;28;20068;-81
2023/08/04 05:48:00;;;;;;;64.00;60.33;;;16.40;99.90;;;;;;5031637;28;20053;-81
2023/08/04 05:50:27;;;;;;;59.88;56.10;;;16.50;99.90;;;;;;5016033;28;20037;-81
2023/08/04 05:52:53;;;;;;;70.15;66.07;;;16.60;99.90;;;;;;5031913;28;20094;-82
2023/08/04 05:55:20;;;;;;;60.83;57.50;;;16.60;99.90;;;;;;5033309;28;20391;-81
2023/08/04 05:57:46;;;;;;;72.47;68.22;;;16.70;99.90;;;;;;5033142;28;20041;-82
2023/08/04 06:00:11;;;;;;;63.72;60.00;;;16.70;99.90;;;;;;5031865;28;20499;-81
2023/08/04 06:02:38;;;;;;;89.35;84.20;;;16.80;99.90;;;;;;5032822;28;20042;-81
2023/08/04 06:05:04;;;;;;;82.45;77.65;;;16.90;99.90;;;;;;5033238;28;20061;-82
2023/08/04 06:07:29;;;;;;;65.32;60.95;;;16.90;99.90;;;;;;5032787;28;20476;-81
2023/08/04 06:09:55;;;;;;;62.33;58.53;;;17.00;99.90;;;;;;5033097;28;20049;-82
2023/08/04 06:12:21;;;;;;;52.30;49.22;;;17.10;99.90;;;;;;5031365;28;20045;-82
2023/08/04 06:14:46;;;;;;;58.03;54.88;;;17.10;99.90;;;;;;5031575;28;20038;-82
2023/08/04 06:17:12;;;;;;;112.60;106.10;;;17.10;99.90;;;;;;5031303;28;20038;-81
2023/08/04 06:19:43;;;;;;;91.90;86.32;;;17.20;99.90;;;;;;5031338;28;20495;-82
2023/08/04 06:22:09;;;;;;;86.88;81.93;;;17.30;99.90;;;;;;5032612;28;20559;-82
2023/08/04 06:24:35;;;;;;;32.67;30.77;;;17.30;99.90;;;;;;5031433;28;20230;-82
2023/08/04 06:27:02;;;;;;;37.03;34.20;;;17.30;99.90;;;;;;5032468;28;20044;-82
2023/08/04 06:29:28;;;;;;;59.65;56.15;;;17.40;99.90;;;;;;5032498;28;20502;-81
2023/08/04 06:31:53;;;;;;;39.33;36.95;;;17.50;99.90;;;;;;5032010;28;20049;-82
2023/08/04 06:34:19;;;;;;;26.95;25.27;;;17.50;99.90;;;;;;5031159;28;20033;-82
2023/08/04 06:36:46;;;;;;;22.38;20.80;;;17.50;99.90;;;;;;5032444;28;20430;-82
2023/08/04 06:39:11;;;;;;;17.67;16.42;;;17.60;99.90;;;;;;5031241;28;20117;-81
2023/08/04 06:41:37;;;;;;;20.55;18.95;;;17.60;99.90;;;;;;5031017;28;20392;-82
2023/08/04 06:44:03;;;;;;;26.25;24.23;;;17.60;99.90;;;;;;5030938;28;20192;-82
2023/08/04 06:46:28;;;;;;;21.30;19.80;;;17.60;99.90;;;;;;5014157;28;20146;-82
2023/08/04 06:48:54;;;;;;;23.45;21.77;;;17.60;99.90;;;;;;5030906;28;20492;-82
2023/08/04 06:51:19;;;;;;;19.77;18.48;;;17.70;99.90;;;;;;5030861;28;20476;-82
2023/08/04 06:53:45;;;;;;;18.58;17.17;;;17.80;99.90;;;;;;5031063;28;20041;-82
2023/08/04 06:56:11;;;;;;;26.20;24.42;;;18.00;99.90;;;;;;5032220;28;20514;-82
2023/08/04 06:58:36;;;;;;;19.67;18.27;;;18.10;99.90;;;;;;5014510;28;20477;-82
2023/08/04 07:01:02;;;;;;;21.15;19.55;;;18.20;99.90;;;;;;5031690;28;20385;-82
2023/08/04 07:03:28;;;;;;;20.67;19.05;;;18.60;99.90;;;;;;5030944;28;20160;-82
2023/08/04 07:05:53;;;;;;;23.55;22.00;;;19.30;99.90;;;;;;5031989;28;20034;-82
2023/08/04 07:08:19;;;;;;;24.45;22.50;;;19.70;99.90;;;;;;5032030;28;20076;-82
2023/08/04 07:10:45;;;;;;;17.45;16.08;;;19.90;99.90;;;;;;5032024;28;20483;-82
2023/08/04 07:13:11;;;;;;;26.40;24.50;;;20.00;99.90;;;;;;5031678;28;20117;-82
2023/08/04 07:15:36;;;;;;;28.88;27.13;;;19.80;99.90;;;;;;5030614;28;20109;-82
2023/08/04 07:18:02;;;;;;;28.50;26.67;;;19.70;99.90;;;;;;5030251;28;20080;-82
2023/08/04 07:20:28;;;;;;;31.25;29.23;;;19.70;99.90;;;;;;5031819;28;20045;-82
2023/08/04 07:22:54;;;;;;;36.38;34.17;;;19.60;99.90;;;;;;5029802;28;20095;-82
2023/08/04 07:25:20;;;;;;;42.42;39.70;;;19.70;99.90;;;;;;5031643;28;20026;-82
2023/08/04 07:27:46;;;;;;;36.70;34.35;;;19.80;99.90;;;;;;5030221;28;20535;-82
2023/08/04 07:30:13;;;;;;;35.75;33.40;;;20.10;99.90;;;;;;5031223;28;20436;-82
2023/08/04 07:32:39;;;;;;;49.75;46.50;;;20.20;99.90;;;;;;5030543;28;20064;-82
2023/08/04 07:35:05;;;;;;;48.97;46.08;;;20.30;99.90;;;;;;5031662;28;20499;-82
2023/08/04 07:37:32;;;;;;;42.88;40.30;;;20.20;99.90;;;;;;5030316;28;20050;-82
2023/08/04 07:39:58;;;;;;;32.15;30.15;;;20.10;99.90;;;;;;5031462;28;20040;-82
2023/08/04 07:42:25;;;;;;;57.90;54.15;;;20.10;99.90;;;;;;5030835;28;20052;-82
2023/08/04 07:44:50;;;;;;;63.65;59.83;;;20.10;99.90;;;;;;5013688;28;20045;-82
2023/08/04 07:47:16;;;;;;;38.60;35.70;;;19.90;99.90;;;;;;5031404;28;20228;-82
2023/08/04 07:49:42;;;;;;;44.75;41.83;;;20.00;99.90;;;;;;5031413;28;20042;-82
2023/08/04 07:52:07;;;;;;;52.33;48.92;;;20.10;99.90;;;;;;5031274;28;20041;-82
2023/08/04 07:54:34;;;;;;;50.58;47.67;;;20.40;99.90;;;;;;5030144;28;20547;-82
2023/08/04 07:57:01;;;;;;;77.07;72.22;;;20.60;99.90;;;;;;5029479;28;20130;-82
2023/08/04 07:59:27;;;;;;;77.43;72.70;;;21.00;99.90;;;;;;5029966;28;20048;-82
2023/08/04 08:01:52;;;;;;;87.05;81.93;;;21.40;99.90;;;;;;5031335;28;20037;-82
2023/08/04 08:04:18;;;;;;;118.10;111.43;;;21.60;99.90;;;;;;5031381;28;20154;-82
2023/08/04 08:06:44;;;;;;;159.20;149.68;;;21.60;99.90;;;;;;5030028;28;20041;-82
2023/08/04 08:09:11;;;;;;;117.35;110.68;;;21.50;99.90;;;;;;5030036;28;20041;-83
2023/08/04 08:11:37;;;;;;;134.88;127.22;;;21.40;99.90;;;;;;5030605;28;20041;-82
2023/08/04 08:14:03;;;;;;;129.50;122.45;;;21.30;99.90;;;;;;5030019;28;20092;-82
2023/08/04 08:16:29;;;;;;;115.13;108.85;;;21.20;99.90;;;;;;5031282;28;20077;-83
2023/08/04 08:18:54;;;;;;;136.38;128.85;;;21.10;99.90;;;;;;5029780;28;20073;-83
2023/08/04 08:21:20;;;;;;;128.13;121.05;;;21.20;99.90;;;;;;5029886;28;20052;-82
2023/08/04 08:23:46;;;;;;;150.82;142.07;;;21.50;99.90;;;;;;5030050;28;20048;-83
2023/08/04 08:26:11;;;;;;;151.00;142.80;;;22.10;99.90;;;;;;5029318;28;20487;-83
2023/08/04 08:28:37;;;;;;;114.40;107.97;;;22.30;99.90;;;;;;5029994;28;20033;-83
2023/08/04 08:31:04;;;;;;;102.68;97.13;;;22.10;99.90;;;;;;5029977;28;20471;-82
2023/08/04 08:33:30;;;;;;;128.50;120.40;;;21.90;99.90;;;;;;5029734;28;20054;-83
2023/08/04 08:35:56;;;;;;;144.05;136.07;;;21.60;99.90;;;;;;5032937;28;20084;-83
2023/08/04 08:38:21;;;;;;;165.75;156.52;;;21.40;99.90;;;;;;5016758;28;20042;-83
2023/08/04 08:40:48;;;;;;;146.77;138.77;;;21.20;99.90;;;;;;5034124;28;20029;-82
2023/08/04 08:43:15;;;;;;;107.72;101.80;;;20.80;99.90;;;;;;5034494;28;20034;-82
2023/08/04 08:45:43;;;;;;;119.10;112.75;;;20.50;99.90;;;;;;5033321;28;20053;-82
2023/08/04 08:48:10;;;;;;;74.63;70.32;;;20.30;99.90;;;;;;5033117;28;20045;-82
2023/08/04 08:50:38;;;;;;;96.03;90.75;;;20.20;99.90;;;;;;5033295;28;20049;-82
2023/08/04 08:53:10;;;;;;;76.30;71.70;;;20.10;99.90;;;;;;5033164;28;20526;-83
2023/08/04 08:55:37;;;;;;;67.13;63.03;;;20.30;99.90;;;;;;5032615;28;20039;-82
2023/08/04 08:58:03;;;;;;;97.53;91.53;;;20.60;99.90;;;;;;5033221;28;20526;-83
2023/08/04 09:00:29;;;;;;;118.13;111.43;;;20.90;99.90;;;;;;5034461;28;20033;-83
2023/08/04 09:02:55;;;;;;;97.13;91.45;;;21.20;99.90;;;;;;5033028;28;20107;-83
2023/08/04 09:05:21;;;;;;;79.10;74.28;;;21.30;99.90;;;;;;5034229;28;20060;-82
2023/08/04 09:07:50;;;;;;;94.07;88.78;;;21.30;99.90;;;;;;5034050;28;20045;-82
2023/08/04 09:10:16;;;;;;;135.02;127.00;;;21.80;99.90;;;;;;5032399;28;20128;-82
2023/08/04 09:12:46;;;;;;;110.13;104.10;;;22.00;99.90;;;;;;5034173;28;20117;-82
2023/08/04 09:15:12;;;;;;;222.35;209.20;;;22.10;99.90;;;;;;5034081;28;20034;-83
2023/08/04 09:17:40;;;;;;;200.90;189.45;;;21.70;99.90;;;;;;5032586;28;20060;-82
2023/08/04 09:20:08;;;;;;;153.50;144.60;;;21.30;99.90;;;;;;5032604;28;20507;-82
2023/08/04 09:22:39;;;;;;;120.15;113.75;;;20.70;99.90;;;;;;5032728;28;20421;-81
2023/08/04 09:25:05;;;;;;;85.15;80.55;;;20.30;99.90;;;;;;5033490;28;20040;-81
2023/08/04 09:27:49;;;;;;;76.20;72.00;;;20.20;99.90;;;;;;5033671;28;20045;-82
2023/08/04 09:30:16;;;;;;;91.20;86.22;;;20.10;99.90;;;;;;5033766;28;20052;-81
2023/08/04 09:32:44;;;;;;;57.75;54.55;;;19.90;99.90;;;;;;5032220;28;20044;-81
2023/08/04 09:35:10;;;;;;;73.38;69.15;;;19.90;99.90;;;;;;5032541;28;20107;-81
2023/08/04 09:37:37;;;;;;;58.90;55.42;;;19.90;99.90;;;;;;5032230;28;20052;-81
2023/08/04 09:40:11;;;;;;;72.18;68.05;;;20.00;99.90;;;;;;5033248;28;20089;-82
2023/08/04 09:42:37;;;;;;;66.10;62.45;;;20.40;99.90;;;;;;5033565;28;20095;-82
2023/08/04 09:45:02;;;;;;;73.47;69.10;;;20.70;99.90;;;;;;5032114;28;20439;-82
2023/08/04 09:47:28;;;;;;;92.50;87.22;;;21.40;99.90;;;;;;5031137;28;20042;-82
2023/08/04 09:49:54;;;;;;;109.82;103.50;;;21.90;99.90;;;;;;5032096;28;20037;-82
2023/08/04 09:52:24;;;;;;;132.60;124.63;;;22.00;99.90;;;;;;5032004;28;20037;-82
2023/08/04 09:54:55;;;;;;;160.73;151.68;;;22.10;99.90;;;;;;5031516;28;20046;-82
2023/08/04 09:57:22;;;;;;;140.23;132.30;;;22.10;99.90;;;;;;5032134;28;20080;-82
2023/08/04 09:59:49;;;;;;;192.20;181.35;;;22.20;99.90;;;;;;5031995;28;20407;-82
2023/08/04 10:02:18;;;;;;;196.07;184.90;;;22.40;99.90;;;;;;5032949;28;20564;-83
2023/08/04 10:04:49;;;;;;;171.60;162.25;;;22.70;99.90;;;;;;5031949;28;20056;-82
2023/08/04 10:07:16;;;;;;;208.63;196.70;;;22.60;99.90;;;;;;5033034;28;20045;-82
2023/08/04 10:09:43;;;;;;;181.20;171.25;;;22.30;99.90;;;;;;5032696;28;20450;-83
2023/08/04 10:12:10;;;;;;;191.38;180.52;;;22.00;99.90;;;;;;5031884;28;20411;-82
2023/08/04 10:14:36;;;;;;;126.72;119.57;;;21.70;99.90;;;;;;5031783;28;20442;-82
2023/08/04 10:17:03;;;;;;;113.75;107.07;;;21.30;99.90;;;;;;5031420;28;20078;-82
2023/08/04 10:19:29;;;;;;;93.25;88.00;;;21.20;99.90;;;;;;5031402;28;20050;-82
2023/08/04 10:22:03;;;;;;;124.50;117.60;;;21.00;99.90;;;;;;5030999;28;20471;-82
2023/08/04 10:24:29;;;;;;;67.40;63.40;;;20.90;99.90;;;;;;5031466;28;20041;-82
2023/08/04 10:26:54;;;;;;;91.05;85.75;;;20.90;99.90;;;;;;5031330;28;20049;-82
2023/08/04 10:29:29;;;;;;;59.95;56.33;;;20.90;99.90;;;;;;5015186;28;20045;-82
2023/08/04 10:31:57;;;;;;;56.50;52.97;;;21.00;99.90;;;;;;5032769;28;20072;-82
2023/08/04 10:34:28;;;;;;;67.85;64.07;;;21.00;99.90;;;;;;5031404;28;20037;-82
2023/08/04 10:37:15;;;;;;;85.78;80.55;;;21.20;99.90;;;;;;5030726;28;20043;-82
2023/08/04 10:39:55;;;;;;;73.43;69.07;;;21.60;99.90;;;;;;5031612;28;20218;-82
2023/08/04 10:42:23;;;;;;;113.10;106.57;;;21.60;99.90;;;;;;5031284;28;20047;-82
2023/08/04 10:45:07;;;;;;;90.65;85.45;;;21.90;99.90;;;;;;5014589;28;20045;-83
2023/08/04 10:47:45;;;;;;;133.63;126.05;;;22.00;99.90;;;;;;5032295;28;20041;-83
2023/08/04 10:50:13;;;;;;;119.53;112.85;;;22.10;99.90;;;;;;5032145;28;20046;-82
2023/08/04 10:52:39;;;;;;;101.90;96.25;;;22.30;99.90;;;;;;5031659;28;20084;-82
2023/08/04 10:55:07;;;;;;;756.75;694.85;;;21.90;99.90;;;;;;5030872;28;20120;-82
2023/08/04 10:57:34;;;;;;;525.17;484.65;;;21.70;99.90;;;;;;5032111;28;20400;-82
2023/08/04 11:00:01;;;;;;;731.92;669.65;;;21.50;99.90;;;;;;5030744;28;20037;-82
2023/08/04 11:02:27;;;;;;;724.25;663.63;;;21.30;99.90;;;;;;5031885;28;20404;-82
2023/08/04 11:04:53;;;;;;;948.42;862.70;;;21.30;99.90;;;;;;5032170;28;20123;-82
2023/08/04 11:07:21;;;;;;;436.77;404.00;;;21.50;99.90;;;;;;5030027;28;20041;-83
2023/08/04 11:09:47;;;;;;;569.20;526.78;;;21.80;99.90;;;;;;5031954;28;20048;-82
2023/08/04 11:12:14;;;;;;;1063.63;950.95;;;22.00;99.90;;;;;;5030688;28;20041;-82
2023/08/04 11:14:40;;;;;;;1423.13;999.90;;;21.90;99.90;;;;;;5030636;28;20039;-83
2023/08/04 11:17:17;;;;;;;1070.03;947.50;;;21.60;99.90;;;;;;5030678;28;20517;-82
2023/08/04 11:19:44;;;;;;;1069.55;955.13;;;21.70;99.90;;;;;;5031647;28;20067;-82
2023/08/04 11:22:19;;;;;;;1296.03;964.05;;;21.80;99.90;;;;;;5029935;28;20045;-82
2023/08/04 11:24:45;;;;;;;952.17;852.10;;;21.70;99.90;;;;;;5031741;28;20048;-82
2023/08/04 11:27:15;;;;;;;959.20;868.63;;;21.70;99.90;;;;;;5030411;28;20033;-83
2023/08/04 11:29:41;;;;;;;1592.13;999.90;;;21.90;99.90;;;;;;5031589;28;20048;-82
2023/08/04 11:32:16;;;;;;;973.05;872.92;;;22.20;99.90;;;;;;5031690;28;20496;-82
2023/08/04 11:34:43;;;;;;;1895.75;999.90;;;22.40;99.90;;;;;;5030038;28;20048;-82
2023/08/04 11:37:09;;;;;;;1481.07;999.90;;;22.30;99.90;;;;;;5030350;28;20530;-83
2023/08/04 11:39:37;;;;;;;1629.70;999.90;;;22.20;99.90;;;;;;5030326;28;20041;-83
2023/08/04 11:42:03;;;;;;;1014.80;908.35;;;22.10;99.90;;;;;;5031760;28;20090;-82
2023/08/04 11:44:30;;;;;;;1740.72;999.90;;;22.00;99.90;;;;;;5030744;28;20042;-83
2023/08/04 11:46:56;;;;;;;1655.68;999.90;;;21.90;99.90;;;;;;5031582;28;20049;-82
2023/08/04 11:49:22;;;;;;;1253.05;991.25;;;21.80;99.90;;;;;;5031083;28;20391;-82
2023/08/04 11:51:49;;;;;;;1182.78;983.63;;;21.60;99.90;;;;;;5030095;28;20045;-82
2023/08/04 11:54:22;;;;;;;1015.38;909.15;;;21.40;99.90;;;;;;5031573;28;20037;-82
2023/08/04 11:56:58;;;;;;;952.90;854.42;;;21.40;99.90;;;;;;5030500;28;20483;-82
2023/08/04 11:59:25;;;;;;;831.55;759.72;;;21.30;99.90;;;;;;5030153;28;20045;-82
2023/08/04 12:02:03;;;;;;;1015.67;917.45;;;21.10;99.90;;;;;;5030190;28;20052;-82
2023/08/04 12:04:29;;;;;;;570.42;513.22;;;21.30;99.90;;;;;;5030901;28;20124;-82
2023/08/04 12:07:00;;;;;;;1568.75;999.90;;;21.40;99.90;;;;;;5031113;28;20120;-83
2023/08/04 12:09:27;;;;;;;1750.00;999.90;;;21.70;99.90;;;;;;5031182;28;20513;-82
2023/08/04 12:11:52;;;;;;;1122.82;987.55;;;21.90;99.90;;;;;;5033973;28;20047;-83
2023/08/04 12:14:20;;;;;;;1999.90;999.90;;;22.10;99.90;;;;;;5033776;28;20399;-83
2023/08/04 12:17:11;;;;;;;1999.90;999.90;;;22.30;99.90;;;;;;5035200;28;20041;-82
2023/08/04 12:19:39;;;;;;;1491.78;999.90;;;22.30;99.90;;;;;;5031227;28;20049;-83
2023/08/04 12:22:05;;;;;;;1999.90;999.90;;;22.50;99.90;;;;;;5033766;28;20091;-83